MCL Express — V2AS7 — position and weather

sailwx.info

Track history (hours):
 
Tides and Currents Weather Stations Pressure Air Temp Water Temp Dewpoint Dewpoint Depression Visibility Wind Speed Wind Dir Waves Ship Positions

MCL Express

Last reported at 2018-Jan-18 15:18 UTC. Time now 2018-Jan-21 01:10 UTC.
Position N 40°53' E 001°41'.

Length 93 m; draft 4.6 m.

Type: Cargo ship. MMSI: 304010998.

Date/timePositionNaut miles runAvg speedWind from/ knotsBaromVisibWave heightAir tempDewpointWater temp
2018-Jan-18 15:18N 40°53' E 001°41'52 9.3
2018-Jan-18 09:43N 40°26' E 002°39'2 9.4
2018-Jan-18 09:28N 40°25' E 002°42'14 9.1
2018-Jan-18 07:59N 40°17' E 002°57'  
2018-Jan-11 13:33N 39°20' E 001°28'1 6.9
2018-Jan-11 13:29N 39°19' E 001°28'6 5.9
2018-Jan-11 12:30N 39°16' E 001°34'3 4.9
2018-Jan-11 11:57N 39°14' E 001°36'5 4.5
2018-Jan-11 10:56N 39°11' E 001°41'5 5.5
2018-Jan-11 10:05N 39°07' E 001°45'0 5.8
2018-Jan-11 10:00N 39°07' E 001°45'4 7.0
2018-Jan-11 09:26N 39°04' E 001°49'  
Track history (hours):
 
Tides and Currents Weather Stations Pressure Air Temp Water Temp Dewpoint Dewpoint Depression Visibility Wind Speed Wind Dir Waves Ship Positions

MCL Express

Last reported at 2018-Jan-18 15:18 UTC. Time now 2018-Jan-21 01:10 UTC.
Position N 40°53' E 001°41'.

Length 93 m; draft 4.6 m.

Type: Cargo ship. MMSI: 304010998.

Date/timePositionNaut miles runAvg speedWind from/ knotsBaromVisibWave heightAir tempDewpointWater temp
2018-Jan-18 15:18N 40°53' E 001°41'52 9.3
2018-Jan-18 09:43N 40°26' E 002°39'2 9.4
2018-Jan-18 09:28N 40°25' E 002°42'14 9.1
2018-Jan-18 07:59N 40°17' E 002°57'  
2018-Jan-11 13:33N 39°20' E 001°28'1 6.9
2018-Jan-11 13:29N 39°19' E 001°28'6 5.9
2018-Jan-11 12:30N 39°16' E 001°34'3 4.9
2018-Jan-11 11:57N 39°14' E 001°36'5 4.5
2018-Jan-11 10:56N 39°11' E 001°41'5 5.5
2018-Jan-11 10:05N 39°07' E 001°45'0 5.8
2018-Jan-11 10:00N 39°07' E 001°45'4 7.0
2018-Jan-11 09:26N 39°04' E 001°49'  

Dump ship's entire track history